createdAt,value
2022-09-18T00:00:17.859Z,9.09
2022-09-18T00:02:48.261Z,9.10
2022-09-18T00:05:19.141Z,9.11
2022-09-18T00:07:49.573Z,9.12
2022-09-18T00:10:21.185Z,9.12
2022-09-18T00:12:51.554Z,9.12
2022-09-18T00:15:22.189Z,9.11
2022-09-18T00:17:52.673Z,9.11
2022-09-18T00:20:23.384Z,9.11
2022-09-18T00:22:53.788Z,9.10
2022-09-18T00:25:24.556Z,9.10
2022-09-18T00:27:55.072Z,9.11
2022-09-18T00:30:25.525Z,9.11
2022-09-18T00:32:56.182Z,9.11
2022-09-18T00:35:26.622Z,9.12
2022-09-18T00:37:56.971Z,9.13
2022-09-18T00:40:27.443Z,9.13
2022-09-18T00:42:59.299Z,9.13
2022-09-18T00:45:29.891Z,9.13
2022-09-18T00:48:01.303Z,9.14
2022-09-18T00:50:30.451Z,9.15
2022-09-18T00:53:05.917Z,9.15
2022-09-18T00:55:39.097Z,9.16
2022-09-18T00:58:10.651Z,9.18
2022-09-18T01:00:39.942Z,9.21
2022-09-18T01:03:10.910Z,9.23
2022-09-18T01:05:58.750Z,9.26
2022-09-18T01:08:43.314Z,9.31
2022-09-18T01:11:28.871Z,9.34
2022-09-18T01:14:14.649Z,9.36
2022-09-18T01:16:51.848Z,9.39
2022-09-18T01:19:49.262Z,9.40
2022-09-18T01:22:31.792Z,9.41
2022-09-18T01:25:17.979Z,9.45
2022-09-18T01:28:08.521Z,9.48
2022-09-18T01:30:44.165Z,9.50
2022-09-18T01:33:22.063Z,9.48
2022-09-18T01:35:58.307Z,9.47
2022-09-18T01:38:34.780Z,9.47
2022-09-18T01:41:11.199Z,9.45
2022-09-18T01:43:43.554Z,9.46
2022-09-18T01:46:22.384Z,9.45
2022-09-18T01:48:58.681Z,9.46
2022-09-18T01:51:36.131Z,9.45
2022-09-18T01:54:15.696Z,9.46
2022-09-18T01:56:51.465Z,9.49
2022-09-18T01:59:28.686Z,9.54
2022-09-18T02:02:12.739Z,9.56
2022-09-18T02:04:47.508Z,9.56
2022-09-18T02:07:25.377Z,9.57
2022-09-18T02:09:56.205Z,9.59
2022-09-18T02:12:30.182Z,9.61
2022-09-18T02:15:12.235Z,9.62
2022-09-18T02:18:06.209Z,9.62
2022-09-18T02:20:45.763Z,9.63
2022-09-18T02:23:17.854Z,9.63
2022-09-18T02:25:53.343Z,9.64
2022-09-18T02:28:26.928Z,9.63
2022-09-18T02:31:01.725Z,9.63
2022-09-18T02:33:43.358Z,9.62
2022-09-18T02:36:31.021Z,9.61
2022-09-18T02:39:13.977Z,9.59
2022-09-18T02:41:52.468Z,9.57
2022-09-18T02:44:31.223Z,9.56
2022-09-18T02:47:11.312Z,9.54
2022-09-18T02:49:54.277Z,9.53
2022-09-18T02:52:29.355Z,9.52
2022-09-18T02:55:08.387Z,9.52
2022-09-18T02:57:42.670Z,9.51
2022-09-18T03:00:18.886Z,9.51
2022-09-18T03:02:53.714Z,9.51
2022-09-18T03:05:35.339Z,9.51
2022-09-18T03:08:06.949Z,9.50
2022-09-18T03:10:35.884Z,9.48
2022-09-18T03:13:07.070Z,9.47
2022-09-18T03:15:37.805Z,9.45
2022-09-18T03:18:08.712Z,9.45
2022-09-18T03:20:41.856Z,9.45
2022-09-18T03:23:13.311Z,9.44
2022-09-18T03:25:45.116Z,9.44
2022-09-18T03:28:17.063Z,9.43
2022-09-18T03:30:48.511Z,9.43
2022-09-18T03:33:19.452Z,9.43
2022-09-18T03:35:50.091Z,9.43
2022-09-18T03:38:20.658Z,9.41
2022-09-18T03:40:53.345Z,9.40
2022-09-18T03:43:24.166Z,9.39
2022-09-18T03:45:54.864Z,9.38
2022-09-18T03:48:25.519Z,9.38
2022-09-18T03:50:56.065Z,9.37
2022-09-18T03:53:26.704Z,9.36
2022-09-18T03:56:20.676Z,9.34
2022-09-18T03:59:23.433Z,9.33
2022-09-18T04:02:02.582Z,9.32
2022-09-18T04:04:33.256Z,9.32
2022-09-18T04:07:22.464Z,9.31
2022-09-18T04:10:12.320Z,9.31
2022-09-18T04:12:45.069Z,9.31
2022-09-18T04:15:21.359Z,9.31
2022-09-18T04:17:51.761Z,9.31
2022-09-18T04:20:23.726Z,9.31
2022-09-18T04:22:54.454Z,9.31
2022-09-18T04:25:24.859Z,9.30
2022-09-18T04:27:55.415Z,9.30
2022-09-18T04:30:26.235Z,9.29
2022-09-18T04:32:56.763Z,9.29
2022-09-18T04:35:28.115Z,9.29
2022-09-18T04:37:59.878Z,9.30
2022-09-18T04:40:30.665Z,9.30
2022-09-18T04:43:01.595Z,9.30
2022-09-18T04:45:33.675Z,9.29
2022-09-18T04:48:05.222Z,9.29
2022-09-18T04:50:35.626Z,9.28
2022-09-18T04:53:17.620Z,9.26
2022-09-18T04:55:49.688Z,9.25
2022-09-18T04:58:20.906Z,9.24
2022-09-18T05:00:55.403Z,9.23
2022-09-18T05:03:26.043Z,9.21
2022-09-18T05:05:56.579Z,9.22
2022-09-18T05:08:29.327Z,9.21
2022-09-18T05:11:00.431Z,9.21
2022-09-18T05:13:32.275Z,9.21
2022-09-18T05:16:19.064Z,9.21
2022-09-18T05:19:03.777Z,9.20
2022-09-18T05:21:34.317Z,9.20
2022-09-18T05:24:05.214Z,9.20
2022-09-18T05:26:36.068Z,9.19
2022-09-18T05:29:06.801Z,9.19
2022-09-18T05:31:37.729Z,9.20
2022-09-18T05:34:08.270Z,9.21
2022-09-18T05:36:38.818Z,9.22
2022-09-18T05:39:13.107Z,9.23
2022-09-18T05:41:50.019Z,9.24
2022-09-18T05:44:21.209Z,9.25
2022-09-18T05:46:51.942Z,9.26
2022-09-18T05:49:22.525Z,9.27
2022-09-18T05:51:54.437Z,9.27
2022-09-18T05:54:24.904Z,9.29
2022-09-18T05:56:56.010Z,9.30
2022-09-18T05:59:27.189Z,9.31
2022-09-18T06:01:58.736Z,9.33
2022-09-18T06:04:58.442Z,9.35
2022-09-18T06:07:29.201Z,9.37
2022-09-18T06:10:00.652Z,9.38
2022-09-18T06:12:31.025Z,9.39
2022-09-18T06:15:01.866Z,9.41
2022-09-18T06:17:32.369Z,9.43
2022-09-18T06:20:05.577Z,9.45
2022-09-18T06:22:34.745Z,9.47
2022-09-18T06:25:06.888Z,9.48
2022-09-18T06:27:38.362Z,9.50
2022-09-18T06:30:10.768Z,9.53
2022-09-18T06:32:41.162Z,9.55
2022-09-18T06:35:11.763Z,9.58
2022-09-18T06:37:42.332Z,9.61
2022-09-18T06:40:25.617Z,9.66
2022-09-18T06:43:19.204Z,9.74
2022-09-18T06:46:09.922Z,9.83
2022-09-18T06:48:43.975Z,9.90
2022-09-18T06:51:15.517Z,9.94
2022-09-18T06:54:04.535Z,9.99
2022-09-18T06:56:35.253Z,10.03
2022-09-18T06:59:06.080Z,10.05
2022-09-18T07:01:36.520Z,10.07
2022-09-18T07:04:20.122Z,10.10
2022-09-18T07:06:50.435Z,10.13
2022-09-18T07:09:20.980Z,10.15
2022-09-18T07:11:58.450Z,10.17
2022-09-18T07:14:36.603Z,10.19
2022-09-18T07:17:17.898Z,10.22
2022-09-18T07:19:51.317Z,10.25
2022-09-18T07:22:25.207Z,10.31
2022-09-18T07:24:56.185Z,10.35
2022-09-18T07:27:26.630Z,10.38
2022-09-18T07:29:58.101Z,10.40
2022-09-18T07:32:29.181Z,10.41
2022-09-18T07:35:00.182Z,10.43
2022-09-18T07:37:37.035Z,10.46
2022-09-18T07:40:18.519Z,10.47
2022-09-18T07:43:14.867Z,10.49
2022-09-18T07:45:56.761Z,10.52
2022-09-18T07:48:27.899Z,10.53
2022-09-18T07:51:01.665Z,10.55
2022-09-18T07:53:34.566Z,10.59
2022-09-18T07:56:11.147Z,10.63
2022-09-18T07:58:41.726Z,10.68
2022-09-18T08:01:19.952Z,10.74
2022-09-18T08:03:53.886Z,10.82
2022-09-18T08:06:24.224Z,10.89
2022-09-18T08:09:04.481Z,10.93
2022-09-18T08:12:04.157Z,11.00
2022-09-18T08:14:44.524Z,11.08
2022-09-18T08:17:44.286Z,11.18
2022-09-18T08:20:41.771Z,11.25
2022-09-18T08:23:34.834Z,11.31
2022-09-18T08:26:05.120Z,11.36
2022-09-18T08:28:35.878Z,11.40
2022-09-18T08:31:11.398Z,11.42
2022-09-18T08:33:42.405Z,11.47
2022-09-18T08:36:14.034Z,11.52
2022-09-18T08:38:59.977Z,11.58
2022-09-18T08:42:05.221Z,11.62
2022-09-18T08:44:46.937Z,11.68
2022-09-18T08:47:25.665Z,11.75
2022-09-18T08:50:01.990Z,11.82
2022-09-18T08:52:36.099Z,11.87
2022-09-18T08:55:29.983Z,11.95
2022-09-18T08:58:14.652Z,12.02
2022-09-18T09:00:52.905Z,12.06
2022-09-18T09:03:38.678Z,12.10
2022-09-18T09:06:23.608Z,12.16
2022-09-18T09:09:14.911Z,12.24
2022-09-18T09:12:12.691Z,12.27
2022-09-18T09:15:05.661Z,12.34
2022-09-18T09:17:48.109Z,12.44
2022-09-18T09:20:32.544Z,12.50
2022-09-18T09:23:07.988Z,12.51
2022-09-18T09:25:50.590Z,12.50
2022-09-18T09:28:37.096Z,12.50
2022-09-18T09:31:30.619Z,12.55
2022-09-18T09:34:07.643Z,12.61
2022-09-18T09:37:20.284Z,12.70
2022-09-18T09:39:57.556Z,12.76
2022-09-18T09:42:35.632Z,12.83
2022-09-18T09:45:15.914Z,12.84
2022-09-18T09:47:52.311Z,12.91
2022-09-18T09:50:35.513Z,12.98
2022-09-18T09:53:11.143Z,13.04
2022-09-18T09:55:51.944Z,13.11
2022-09-18T09:58:39.222Z,13.20
2022-09-18T10:01:15.326Z,13.26
2022-09-18T10:03:52.476Z,13.24
2022-09-18T10:06:37.652Z,13.25
2022-09-18T10:09:20.850Z,13.21
2022-09-18T10:11:57.565Z,13.19
2022-09-18T10:14:32.383Z,13.18
2022-09-18T10:17:07.020Z,13.22
2022-09-18T10:19:41.331Z,13.27
2022-09-18T10:22:16.049Z,13.31
2022-09-18T10:24:54.888Z,13.35
2022-09-18T10:27:25.288Z,13.37
2022-09-18T10:29:56.998Z,13.37
2022-09-18T10:32:44.076Z,13.42
2022-09-18T10:35:44.365Z,13.45
2022-09-18T10:38:32.240Z,13.47
2022-09-18T10:41:39.235Z,13.45
2022-09-18T10:44:25.757Z,13.45
2022-09-18T10:47:06.266Z,13.47
2022-09-18T10:49:40.765Z,13.48
2022-09-18T10:52:28.562Z,13.50
2022-09-18T10:55:15.096Z,13.51
2022-09-18T10:58:04.660Z,13.51
2022-09-18T11:00:52.932Z,13.48
2022-09-18T11:03:35.018Z,13.48
2022-09-18T11:06:15.698Z,13.46
2022-09-18T11:08:50.669Z,13.45
2022-09-18T11:11:30.467Z,13.43
2022-09-18T11:14:07.993Z,13.45
2022-09-18T11:16:53.782Z,13.52
2022-09-18T11:19:31.307Z,13.56
2022-09-18T11:22:06.670Z,13.53
2022-09-18T11:24:47.213Z,13.50
2022-09-18T11:27:22.975Z,13.46
2022-09-18T11:30:16.283Z,13.43
2022-09-18T11:32:47.472Z,13.37
2022-09-18T11:35:20.950Z,13.34
2022-09-18T11:37:55.963Z,13.33
2022-09-18T11:40:29.857Z,13.33
2022-09-18T11:43:05.653Z,13.34
2022-09-18T11:45:52.174Z,13.32
2022-09-18T11:48:33.442Z,13.31
2022-09-18T11:51:11.804Z,13.31
2022-09-18T11:53:47.377Z,13.33
2022-09-18T11:56:23.929Z,13.35
2022-09-18T11:59:00.653Z,13.36
2022-09-18T12:01:38.482Z,13.34
2022-09-18T12:04:17.292Z,13.33
2022-09-18T12:06:58.631Z,13.31
2022-09-18T12:09:35.080Z,13.31
2022-09-18T12:12:11.478Z,13.30
2022-09-18T12:14:47.977Z,13.29
2022-09-18T12:17:27.632Z,13.27
2022-09-18T12:20:02.751Z,13.18
2022-09-18T12:22:44.255Z,12.99
2022-09-18T12:25:18.792Z,12.75
2022-09-18T12:28:28.810Z,12.59
2022-09-18T12:31:08.041Z,12.49
2022-09-18T12:33:47.656Z,12.44
2022-09-18T12:36:46.936Z,12.42
2022-09-18T12:39:32.727Z,12.43
2022-09-18T12:42:17.977Z,12.45
2022-09-18T12:45:05.854Z,12.49
2022-09-18T12:48:00.638Z,12.52
2022-09-18T12:50:52.464Z,12.59
2022-09-18T12:53:36.447Z,12.61
2022-09-18T12:56:23.264Z,12.64
2022-09-18T12:59:11.186Z,12.71
2022-09-18T13:01:46.606Z,12.73
2022-09-18T13:04:23.552Z,12.75
2022-09-18T13:06:58.085Z,12.78
2022-09-18T13:09:32.507Z,12.79
2022-09-18T13:12:11.693Z,12.84
2022-09-18T13:14:48.666Z,12.90
2022-09-18T13:17:24.502Z,12.96
2022-09-18T13:20:00.697Z,12.99
2022-09-18T13:22:36.689Z,12.99
2022-09-18T13:25:21.148Z,12.99
2022-09-18T13:27:54.449Z,12.99
2022-09-18T13:30:30.160Z,13.00
2022-09-18T13:33:01.914Z,13.04
2022-09-18T13:35:34.780Z,13.06
2022-09-18T13:38:16.954Z,13.08
2022-09-18T13:40:50.241Z,13.07
2022-09-18T13:43:32.652Z,13.06
2022-09-18T13:46:07.021Z,13.07
2022-09-18T13:48:46.195Z,13.07
2022-09-18T13:51:26.709Z,13.08
2022-09-18T13:54:20.539Z,13.08
2022-09-18T13:57:21.756Z,13.12
2022-09-18T13:59:58.554Z,13.16
2022-09-18T14:02:37.891Z,13.18
2022-09-18T14:05:34.789Z,13.20
2022-09-18T14:08:38.806Z,13.23
2022-09-18T14:11:15.325Z,13.27
2022-09-18T14:13:51.965Z,13.27
2022-09-18T14:16:40.846Z,13.28
2022-09-18T14:19:30.836Z,13.29
2022-09-18T14:22:02.563Z,13.30
2022-09-18T14:24:57.355Z,13.30
2022-09-18T14:27:45.234Z,13.30
2022-09-18T14:30:22.578Z,13.28
2022-09-18T14:33:04.353Z,13.25
2022-09-18T14:35:45.981Z,13.26
2022-09-18T14:38:27.556Z,13.26
2022-09-18T14:41:01.344Z,13.26
2022-09-18T14:43:31.662Z,13.25
2022-09-18T14:46:02.439Z,13.25
2022-09-18T14:48:42.106Z,13.24
2022-09-18T14:51:21.090Z,13.21
2022-09-18T14:53:54.297Z,13.19
2022-09-18T14:56:29.705Z,13.20
2022-09-18T14:59:04.521Z,13.20
2022-09-18T15:01:36.312Z,13.20
2022-09-18T15:04:09.198Z,13.20
2022-09-18T15:06:44.690Z,13.20
2022-09-18T15:09:22.103Z,13.19
2022-09-18T15:12:02.274Z,13.17
2022-09-18T15:14:42.806Z,13.14
2022-09-18T15:17:21.796Z,13.12
2022-09-18T15:20:00.722Z,13.11
2022-09-18T15:22:32.048Z,13.11
2022-09-18T15:25:02.023Z,13.08
2022-09-18T15:27:33.874Z,13.02
2022-09-18T15:30:06.974Z,13.00
2022-09-18T15:32:42.655Z,12.99
2022-09-18T15:35:22.444Z,12.97
2022-09-18T15:37:57.223Z,12.96
2022-09-18T15:40:33.330Z,12.95
2022-09-18T15:43:06.103Z,12.96
2022-09-18T15:45:38.996Z,12.99
2022-09-18T15:48:37.073Z,13.00
2022-09-18T15:51:14.846Z,13.00
2022-09-18T15:54:04.674Z,13.01
2022-09-18T15:56:36.543Z,13.04
2022-09-18T15:59:09.527Z,13.08
2022-09-18T16:01:46.250Z,13.10
2022-09-18T16:04:27.032Z,13.13
2022-09-18T16:07:00.808Z,13.16
2022-09-18T16:09:41.345Z,13.17
2022-09-18T16:12:44.343Z,13.18
2022-09-18T16:15:25.491Z,13.18
2022-09-18T16:17:58.970Z,13.16
2022-09-18T16:20:38.481Z,13.12
2022-09-18T16:23:30.185Z,13.01
2022-09-18T16:26:11.712Z,12.91
2022-09-18T16:28:43.683Z,12.80
2022-09-18T16:31:16.697Z,12.68
2022-09-18T16:33:55.498Z,12.57
2022-09-18T16:36:31.106Z,12.46
2022-09-18T16:39:03.681Z,12.39
2022-09-18T16:41:35.133Z,12.29
2022-09-18T16:44:04.738Z,12.21
2022-09-18T16:46:40.131Z,12.13
2022-09-18T16:49:14.462Z,12.04
2022-09-18T16:51:45.121Z,11.95
2022-09-18T16:54:17.697Z,11.88
2022-09-18T16:56:53.033Z,11.82
2022-09-18T16:59:28.410Z,11.74
2022-09-18T17:02:05.295Z,11.70
2022-09-18T17:04:36.200Z,11.68
2022-09-18T17:07:07.360Z,11.66
2022-09-18T17:09:38.507Z,11.63
2022-09-18T17:12:09.528Z,11.61
2022-09-18T17:14:41.009Z,11.59
2022-09-18T17:17:13.447Z,11.56
2022-09-18T17:19:44.944Z,11.51
2022-09-18T17:22:16.873Z,11.44
2022-09-18T17:24:51.371Z,11.36
2022-09-18T17:27:22.459Z,11.28
2022-09-18T17:29:54.799Z,11.20
2022-09-18T17:32:27.150Z,11.09
2022-09-18T17:34:57.709Z,11.00
2022-09-18T17:37:29.537Z,10.92
2022-09-18T17:40:00.700Z,10.83
2022-09-18T17:42:31.427Z,10.73
2022-09-18T17:45:02.027Z,10.65
2022-09-18T17:47:33.025Z,10.56
2022-09-18T17:50:05.196Z,10.46
2022-09-18T17:52:37.188Z,10.36
2022-09-18T17:55:14.078Z,10.28
2022-09-18T17:57:44.545Z,10.20
2022-09-18T18:00:15.754Z,10.13
2022-09-18T18:02:48.940Z,10.06
2022-09-18T18:05:19.967Z,9.99
2022-09-18T18:07:50.625Z,9.95
2022-09-18T18:10:21.185Z,9.92
2022-09-18T18:12:52.087Z,9.90
2022-09-18T18:15:22.443Z,9.89
2022-09-18T18:17:53.367Z,9.87
2022-09-18T18:20:24.320Z,9.85
2022-09-18T18:22:55.025Z,9.82
2022-09-18T18:25:25.637Z,9.81
2022-09-18T18:27:56.218Z,9.79
2022-09-18T18:30:27.545Z,9.78
2022-09-18T18:32:57.792Z,9.76
2022-09-18T18:35:28.433Z,9.75
2022-09-18T18:37:59.371Z,9.73
2022-09-18T18:40:30.299Z,9.70
2022-09-18T18:43:01.651Z,9.67
2022-09-18T18:45:35.257Z,9.63
2022-09-18T18:48:09.746Z,9.60
2022-09-18T18:50:44.243Z,9.58
2022-09-18T18:53:15.689Z,9.57
2022-09-18T18:55:48.318Z,9.55
2022-09-18T18:58:19.236Z,9.55
2022-09-18T19:00:50.099Z,9.56
2022-09-18T19:03:20.688Z,9.55
2022-09-18T19:05:51.227Z,9.55
2022-09-18T19:08:22.949Z,9.53
2022-09-18T19:10:59.378Z,9.53
2022-09-18T19:13:43.139Z,9.52
2022-09-18T19:16:14.666Z,9.53
2022-09-18T19:18:46.634Z,9.53
2022-09-18T19:21:17.169Z,9.54
2022-09-18T19:23:52.232Z,9.55
2022-09-18T19:26:24.204Z,9.58
2022-09-18T19:28:56.191Z,9.64
2022-09-18T19:31:27.649Z,9.69
2022-09-18T19:33:58.013Z,9.73
2022-09-18T19:36:32.456Z,9.77
2022-09-18T19:39:05.602Z,9.80
2022-09-18T19:41:43.035Z,9.84
2022-09-18T19:44:17.505Z,9.87
2022-09-18T19:46:48.246Z,9.89
2022-09-18T19:49:21.659Z,9.90
2022-09-18T19:51:52.231Z,9.91
2022-09-18T19:54:23.058Z,9.91
2022-09-18T19:56:53.418Z,9.92
2022-09-18T19:59:23.905Z,9.92
2022-09-18T20:01:55.389Z,9.89
2022-09-18T20:04:25.922Z,9.88
2022-09-18T20:06:56.313Z,9.86
2022-09-18T20:09:30.522Z,9.87
2022-09-18T20:12:01.647Z,9.84
2022-09-18T20:14:34.182Z,9.77
2022-09-18T20:17:04.887Z,9.70
2022-09-18T20:19:35.427Z,9.64
2022-09-18T20:22:06.556Z,9.60
2022-09-18T20:24:36.838Z,9.57
2022-09-18T20:27:07.440Z,9.55
2022-09-18T20:29:38.115Z,9.54
2022-09-18T20:32:08.837Z,9.54
2022-09-18T20:34:39.585Z,9.51
2022-09-18T20:37:11.299Z,9.47
2022-09-18T20:39:42.042Z,9.44
2022-09-18T20:42:12.706Z,9.41
2022-09-18T20:44:43.150Z,9.38
2022-09-18T20:47:13.602Z,9.35
2022-09-18T20:49:46.259Z,9.26
2022-09-18T20:52:16.711Z,9.13
2022-09-18T20:54:47.059Z,8.99
2022-09-18T20:57:17.879Z,8.85
2022-09-18T20:59:51.980Z,8.73
2022-09-18T21:02:26.023Z,8.62
2022-09-18T21:04:56.525Z,8.55
2022-09-18T21:07:27.399Z,8.48
2022-09-18T21:09:58.365Z,8.43
2022-09-18T21:12:38.782Z,8.40
2022-09-18T21:15:15.117Z,8.39
2022-09-18T21:17:48.742Z,8.36
2022-09-18T21:20:25.502Z,8.34
2022-09-18T21:23:13.618Z,8.33
2022-09-18T21:25:44.213Z,8.32
2022-09-18T21:28:14.725Z,8.32
2022-09-18T21:30:45.289Z,8.32
2022-09-18T21:33:15.899Z,8.32
2022-09-18T21:35:54.953Z,8.31
2022-09-18T21:38:25.352Z,8.30
2022-09-18T21:41:02.087Z,8.29
2022-09-18T21:43:38.162Z,8.28
2022-09-18T21:46:11.518Z,8.26
2022-09-18T21:48:43.092Z,8.25
2022-09-18T21:51:15.893Z,8.25
2022-09-18T21:53:46.774Z,8.24
2022-09-18T21:56:19.655Z,8.23
2022-09-18T21:58:50.894Z,8.22
2022-09-18T22:01:23.341Z,8.22
2022-09-18T22:03:56.044Z,8.21
2022-09-18T22:06:29.344Z,8.19
2022-09-18T22:09:01.538Z,8.18
2022-09-18T22:11:36.862Z,8.14
2022-09-18T22:14:08.945Z,8.11
2022-09-18T22:16:39.998Z,8.08
2022-09-18T22:19:11.155Z,8.08
2022-09-18T22:21:43.719Z,8.05
2022-09-18T22:24:18.790Z,8.00
2022-09-18T22:26:51.637Z,7.95
2022-09-18T22:29:23.982Z,7.89
2022-09-18T22:31:55.674Z,7.84
2022-09-18T22:34:28.967Z,7.78
2022-09-18T22:37:01.658Z,7.73
2022-09-18T22:39:32.427Z,7.68
2022-09-18T22:42:03.483Z,7.63
2022-09-18T22:44:33.992Z,7.58
2022-09-18T22:47:05.067Z,7.54
2022-09-18T22:49:35.605Z,7.49
2022-09-18T22:52:06.613Z,7.44
2022-09-18T22:54:37.149Z,7.39
2022-09-18T22:57:08.074Z,7.33
2022-09-18T22:59:38.580Z,7.27
2022-09-18T23:02:09.078Z,7.21
2022-09-18T23:04:40.939Z,7.15
2022-09-18T23:07:11.489Z,7.11
2022-09-18T23:09:41.923Z,7.06
2022-09-18T23:12:12.511Z,7.01
2022-09-18T23:14:42.926Z,6.96
2022-09-18T23:17:13.318Z,6.92
2022-09-18T23:19:43.640Z,6.89
2022-09-18T23:22:14.166Z,6.85
2022-09-18T23:24:44.628Z,6.81
2022-09-18T23:27:15.024Z,6.79
2022-09-18T23:29:45.465Z,6.74
2022-09-18T23:32:16.012Z,6.73
2022-09-18T23:34:46.410Z,6.71
2022-09-18T23:37:16.735Z,6.70
2022-09-18T23:39:47.219Z,6.69
2022-09-18T23:42:17.680Z,6.65
2022-09-18T23:44:48.069Z,6.63
2022-09-18T23:47:18.527Z,6.60
2022-09-18T23:49:48.934Z,6.57
2022-09-18T23:52:19.828Z,6.53
2022-09-18T23:54:50.385Z,6.52
2022-09-18T23:57:22.590Z,6.50
2022-09-18T23:59:53.283Z,6.47
